Huvudsida
METAR-TAF:

METAR-TAF

Flygplatser :

Altus, Oklahoma, USA

latitud: 34-41-55N, longitud: 099-20-17W, höjd: 437 m

Aktuellt väderrapport

Denna rapport gjordes för 13 minuter sedan, klockan 02:55 UTC
Vind 8 kt från ost/sydost
Temperatur 6°C
Fuktighet 70%
Tryck 1018 hPa
Sikt: 16.1 km
Klar himmel

METAR: KAXS 250255Z AUTO 11008KT 10SM CLR 06/01 A3006 RMK AO2 T00600006

Tid: 21:08 (03:08 UTC)


TAF: saknas

Aktuella väderrapporter och prognoser från 4000 flygplatser (METAR- och TAF-rapporter).

De tillgängliga stationerna syns som gula och röda prickar på kartan.

För musen över prickarna för att se namnen på stationerna.

Klicka sedan för att få väderrapporter och prognoser.

För att ändra kartan: Klicka på de gröna knapparna med ett svart kors på för att zooma in; den gröna knappen med ett streck på för att zooma ut; eller på de gröna pilarna för angränsande kartor.


METAR-TAF: